EFTUEFPO

Guest
Details From EFTU - Turku
To EFPO - Pori
Flight Number -
Tags generated
Created
Modified
Stats Distance 58 nm / 108 km
Max Altitude 4,400 ft / 1,341 m
Waypoints 3
Social Downloads 0
Likes 0
Share VATSIM

Download

Looking for another format? Having issues loading an existing format? Contact us
Advertisement - Login to hide

Notes

Basic altitude profile: - Ascent Rate: 2500ft/min - Ascent Speed: 250kts - Cruise Altitude: 35000ft - Cruise Speed: 420kts - Descent Rate: 1500ft/min - Descent Speed: 250kts Options: - Use NATs: yes - Use PACOTS: yes - Use low airways: yes - Use high airways: yes

Route

EFTU TUSKU EFPO

ID Type Via Altitude (ft/m) Position (lat/lon) Dist (leg/tot) Name
O EFTU APT - 0 / 0 60.51412 / 22.26281 - / 0 nm Turku
TUSKU FIX - 4,400 / 1,341 61.12472 / 21.96417 37 / 37 nm
O EFPO APT - 0 / 0 61.46117 / 21.79925 20 / 58 nm Pori

Altitude Profile

Advertisement - Login to hide

EFTU

Details ICAO EFTU (TKU)
Name Turku
Region Finland
Timezone Europe/Helsinki (UTC+3.0)
Stats Elevation 161 ft / 49 m (AMSL)
Location 60.514100° 22.262800°
Runways 1
Magnetic Variation 8.109° E

METAR

EFTU 161550Z AUTO 03004KT 9999 OVC015 11/08 Q1019

Decode

TAF

TAF EFTU 161426Z 1615/1715 35005KT 9999 FEW009 BKN015 TEMPO 1615/1623 BKN009 BECMG 1623/1701 0500 FG VV002 TEMPO 1701/1707 1000 BR BECMG 1707/1709 5000 BR BKN005 BECMG 1709/1711 19010KT 9999

Decode

Departure Runways

ID Width Length Bearing (true/mag) Surface Threshold Overrun Markings Lighting
08 197 ft / 60 m 8,210 ft / 2,502 m 84.82° / 76.71° ASPHALT 0 ft / 0 m 167 ft / 51 m PREC-APP EDGE THRESHOLD MALS
26 197 ft / 60 m 8,210 ft / 2,502 m 264.86° / 256.75° ASPHALT 0 ft / 0 m 49 ft / 15 m PREC-APP EDGE THRESHOLD CALVERT

EFPO

Details ICAO EFPO (POR)
Name Pori
Region Finland
Timezone Europe/Helsinki (UTC+3.0)
Stats Elevation 44 ft / 13 m (AMSL)
Location 61.461200° 21.799300°
Runways 2
Magnetic Variation 8.174° E

METAR

EFPO 161550Z AUTO 00000KT CAVOK 07/06 Q1019

Decode

TAF

Not found

Destination Runways

ID Width Length Bearing (true/mag) Surface Threshold Overrun Markings Lighting
12 197 ft / 60 m 7,692 ft / 2,345 m 125.81° / 117.64° ASPHALT 312 ft / 95 m 0 ft / 0 m PREC-APP EDGE THRESHOLD
17 98 ft / 30 m 2,623 ft / 799 m 173.89° / 165.72° ASPHALT 400 ft / 122 m 0 ft / 0 m PREC-APP
30 197 ft / 60 m 7,692 ft / 2,345 m 305.84° / 297.67° ASPHALT 1,132 ft / 345 m 0 ft / 0 m PREC-APP EDGE THRESHOLD ALSF-I
35 98 ft / 30 m 2,623 ft / 799 m 353.90° / 345.72° ASPHALT 400 ft / 122 m 0 ft / 0 m PREC-APP

Approach Navaids

Runway Type Ident Frequency Range Bearing (true/mag) Slope Elevation
30 LOC-ILS PO 109.10 MHz 18 nm / 33 km 305.81° / 297.63 ° - 44 ft / 13 m (AMSL)
30 GS PO 109.10 MHz 10 nm / 19 km 306.65° / 298.48 ° 3.00° 44 ft / 13 m (AMSL)
30 OM OM - - 305.83° / 297.65 ° - 44 ft / 13 m (AMSL)
30 MM MM - - 305.83° / 297.65 ° - 44 ft / 13 m (AMSL)

Popular Alternatives